createdAt,value
2023-03-06T00:01:38.204Z,91.71
2023-03-06T00:04:08.198Z,92.62
2023-03-06T00:06:35.608Z,93.02
2023-03-06T00:09:02.976Z,92.39
2023-03-06T00:11:30.272Z,92.84
2023-03-06T00:13:57.691Z,93.53
2023-03-06T00:16:25.773Z,93.74
2023-03-06T00:18:53.075Z,93.53
2023-03-06T00:21:21.839Z,93.13
2023-03-06T00:23:49.174Z,94.50
2023-03-06T00:26:16.561Z,94.24
2023-03-06T00:28:43.890Z,94.25
2023-03-06T00:31:13.555Z,95.43
2023-03-06T00:33:40.891Z,96.37
2023-03-06T00:36:08.453Z,95.57
2023-03-06T00:38:37.277Z,94.91
2023-03-06T00:41:09.307Z,95.90
2023-03-06T00:43:37.875Z,96.39
2023-03-06T00:46:05.825Z,96.64
2023-03-06T00:48:34.122Z,95.47
2023-03-06T00:51:01.818Z,95.18
2023-03-06T00:53:29.084Z,94.56
2023-03-06T00:55:56.423Z,94.40
2023-03-06T00:58:23.765Z,94.60
2023-03-06T01:00:51.423Z,94.65
2023-03-06T01:03:18.787Z,95.30
2023-03-06T01:05:46.242Z,96.21
2023-03-06T01:08:13.579Z,94.91
2023-03-06T01:10:41.040Z,95.35
2023-03-06T01:13:09.767Z,96.05
2023-03-06T01:15:37.069Z,95.67
2023-03-06T01:18:04.575Z,95.45
2023-03-06T01:20:32.128Z,95.72
2023-03-06T01:22:59.478Z,95.92
2023-03-06T01:25:28.669Z,95.56
2023-03-06T01:27:58.715Z,93.96
2023-03-06T01:30:26.048Z,92.84
2023-03-06T01:32:53.353Z,94.17
2023-03-06T01:35:20.743Z,94.22
2023-03-06T01:37:48.147Z,94.69
2023-03-06T01:40:15.703Z,94.63
2023-03-06T01:42:43.082Z,93.72
2023-03-06T01:45:13.421Z,94.12
2023-03-06T01:47:40.912Z,94.48
2023-03-06T01:50:10.875Z,95.09
2023-03-06T01:52:47.950Z,94.16
2023-03-06T01:55:21.047Z,94.10
2023-03-06T01:57:55.159Z,94.40
2023-03-06T02:00:25.356Z,94.68
2023-03-06T02:02:55.742Z,95.39
2023-03-06T02:05:23.564Z,95.30
2023-03-06T02:07:51.913Z,95.11
2023-03-06T02:10:20.607Z,94.58
2023-03-06T02:12:50.314Z,93.54
2023-03-06T02:15:22.205Z,95.64
2023-03-06T02:17:51.257Z,93.66
2023-03-06T02:20:33.739Z,93.02
2023-03-06T02:23:16.745Z,93.20
2023-03-06T02:25:48.428Z,93.77
2023-03-06T02:28:18.782Z,93.83
2023-03-06T02:30:48.662Z,93.64
2023-03-06T02:33:23.139Z,93.35
2023-03-06T02:35:55.798Z,93.65
2023-03-06T02:38:28.993Z,93.54
2023-03-06T02:40:58.145Z,94.03
2023-03-06T02:43:34.552Z,94.69
2023-03-06T02:46:03.012Z,94.38
2023-03-06T02:48:30.303Z,95.05
2023-03-06T02:50:57.922Z,94.98
2023-03-06T02:53:26.409Z,94.57
2023-03-06T02:55:54.503Z,94.67
2023-03-06T02:58:21.872Z,95.02
2023-03-06T03:00:49.676Z,94.50
2023-03-06T03:03:17.966Z,94.01
2023-03-06T03:05:45.276Z,94.78
2023-03-06T03:08:20.140Z,93.75
2023-03-06T03:10:49.223Z,93.84
2023-03-06T03:13:16.654Z,94.07
2023-03-06T03:15:46.706Z,93.67
2023-03-06T03:18:14.087Z,94.22
2023-03-06T03:20:43.849Z,93.84
2023-03-06T03:23:11.225Z,93.47
2023-03-06T03:25:38.594Z,93.69
2023-03-06T03:28:06.155Z,93.45
2023-03-06T03:30:33.638Z,92.88
2023-03-06T03:33:01.384Z,93.15
2023-03-06T03:35:28.921Z,94.39
2023-03-06T03:37:57.109Z,95.01
2023-03-06T03:40:24.772Z,95.00
2023-03-06T03:42:52.380Z,96.34
2023-03-06T03:45:20.809Z,96.83
2023-03-06T03:47:48.312Z,97.33
2023-03-06T03:50:15.960Z,96.12
2023-03-06T03:52:43.812Z,95.35
2023-03-06T03:55:12.763Z,94.55
2023-03-06T03:57:43.121Z,95.20
2023-03-06T04:00:16.046Z,95.06
2023-03-06T04:02:57.475Z,95.35
2023-03-06T04:05:35.956Z,94.59
2023-03-06T04:08:05.740Z,94.72
2023-03-06T04:10:35.060Z,94.49
2023-03-06T04:13:03.445Z,94.18
2023-03-06T04:15:31.971Z,94.14
2023-03-06T04:18:00.967Z,93.92
2023-03-06T04:20:30.589Z,92.93
2023-03-06T04:23:00.247Z,94.31
2023-03-06T04:25:27.894Z,93.89
2023-03-06T04:27:55.361Z,93.85
2023-03-06T04:30:25.585Z,92.46
2023-03-06T04:32:53.105Z,93.04
2023-03-06T04:35:20.678Z,93.25
2023-03-06T04:37:56.379Z,93.61
2023-03-06T04:40:28.716Z,93.40
2023-03-06T04:42:58.363Z,94.15
2023-03-06T04:45:27.210Z,93.37
2023-03-06T04:47:55.144Z,92.97
2023-03-06T04:50:24.035Z,92.88
2023-03-06T04:52:51.836Z,92.07
2023-03-06T04:55:19.891Z,93.47
2023-03-06T04:57:47.880Z,90.55
2023-03-06T05:00:22.200Z,90.23
2023-03-06T05:02:51.120Z,89.92
2023-03-06T05:05:19.375Z,90.66
2023-03-06T05:07:47.163Z,91.65
2023-03-06T05:10:16.687Z,91.34
2023-03-06T05:12:44.829Z,93.46
2023-03-06T05:15:13.196Z,94.90
2023-03-06T05:17:40.652Z,95.51
2023-03-06T05:20:10.300Z,96.58
2023-03-06T05:22:38.033Z,95.63
2023-03-06T05:25:06.473Z,96.10
2023-03-06T05:27:34.335Z,96.11
2023-03-06T05:30:01.789Z,97.96
2023-03-06T05:32:29.414Z,96.96
2023-03-06T05:34:56.745Z,97.83
2023-03-06T05:37:24.384Z,98.08
2023-03-06T05:39:51.918Z,98.57
2023-03-06T05:42:21.936Z,98.23
2023-03-06T05:44:49.361Z,98.24
2023-03-06T05:47:16.783Z,99.02
2023-03-06T05:49:44.108Z,98.88
2023-03-06T05:52:13.114Z,99.63
2023-03-06T05:54:40.396Z,100.00
2023-03-06T05:57:07.852Z,100.00
2023-03-06T05:59:35.970Z,100.00
2023-03-06T06:02:05.395Z,100.00
2023-03-06T06:04:32.881Z,99.95
2023-03-06T06:07:01.245Z,100.00
2023-03-06T06:09:29.277Z,100.00
2023-03-06T06:12:02.425Z,100.00
2023-03-06T06:14:30.742Z,100.00
2023-03-06T06:16:58.041Z,100.00
2023-03-06T06:19:28.038Z,100.00
2023-03-06T06:21:55.682Z,100.00
2023-03-06T06:24:25.603Z,100.00
2023-03-06T06:26:55.626Z,100.00
2023-03-06T06:29:23.484Z,100.00
2023-03-06T06:31:52.135Z,97.13
2023-03-06T06:34:20.720Z,95.91
2023-03-06T06:36:48.331Z,97.38
2023-03-06T06:39:20.279Z,99.04
2023-03-06T06:42:05.620Z,98.98
2023-03-06T06:44:38.937Z,98.11
2023-03-06T06:47:22.208Z,97.21
2023-03-06T06:49:52.775Z,96.09
2023-03-06T06:52:21.000Z,95.42
2023-03-06T06:54:48.331Z,97.49
2023-03-06T06:57:16.332Z,98.17
2023-03-06T06:59:43.805Z,96.36
2023-03-06T07:02:12.945Z,97.10
2023-03-06T07:04:52.343Z,97.23
2023-03-06T07:07:25.541Z,95.68
2023-03-06T07:09:54.680Z,93.94
2023-03-06T07:12:22.122Z,95.19
2023-03-06T07:14:50.673Z,94.55
2023-03-06T07:17:18.420Z,95.88
2023-03-06T07:19:45.859Z,92.68
2023-03-06T07:22:13.313Z,90.42
2023-03-06T07:24:40.680Z,92.41
2023-03-06T07:27:08.080Z,93.88
2023-03-06T07:29:35.598Z,93.35
2023-03-06T07:32:03.039Z,95.48
2023-03-06T07:34:30.404Z,93.96
2023-03-06T07:36:57.767Z,93.72
2023-03-06T07:39:25.176Z,92.31
2023-03-06T07:41:53.476Z,91.80
2023-03-06T07:44:20.867Z,91.34
2023-03-06T07:46:48.195Z,92.30
2023-03-06T07:49:15.994Z,92.06
2023-03-06T07:51:43.527Z,92.55
2023-03-06T07:54:10.939Z,92.34
2023-03-06T07:56:38.313Z,93.60
2023-03-06T07:59:05.596Z,93.32
2023-03-06T08:01:33.177Z,94.83
2023-03-06T08:04:02.028Z,95.09
2023-03-06T08:06:29.504Z,94.48
2023-03-06T08:08:57.143Z,93.96
2023-03-06T08:11:27.089Z,94.63
2023-03-06T08:13:55.725Z,94.64
2023-03-06T08:16:25.865Z,95.59
2023-03-06T08:18:53.764Z,93.77
2023-03-06T08:21:26.710Z,94.18
2023-03-06T08:23:56.526Z,95.72
2023-03-06T08:26:27.226Z,94.52
2023-03-06T08:28:57.001Z,96.06
2023-03-06T08:31:35.909Z,97.26
2023-03-06T08:34:10.932Z,98.20
2023-03-06T08:36:38.831Z,96.18
2023-03-06T08:39:06.645Z,95.54
2023-03-06T08:41:34.337Z,95.75
2023-03-06T08:44:01.627Z,95.23
2023-03-06T08:46:32.718Z,93.30
2023-03-06T08:49:00.385Z,92.24
2023-03-06T08:51:29.039Z,91.75
2023-03-06T08:53:57.919Z,90.66
2023-03-06T08:56:36.088Z,88.67
2023-03-06T08:59:04.716Z,88.61
2023-03-06T09:01:35.148Z,88.04
2023-03-06T09:04:06.322Z,88.76
2023-03-06T09:06:38.640Z,86.65
2023-03-06T09:09:06.469Z,83.85
2023-03-06T09:11:34.201Z,82.59
2023-03-06T09:14:01.598Z,83.98
2023-03-06T09:16:29.234Z,82.52
2023-03-06T09:18:57.836Z,82.07
2023-03-06T09:21:26.268Z,80.80
2023-03-06T09:23:53.893Z,79.87
2023-03-06T09:26:21.413Z,78.10
2023-03-06T09:28:48.769Z,75.55
2023-03-06T09:31:18.673Z,76.13
2023-03-06T09:33:46.794Z,74.21
2023-03-06T09:36:19.211Z,74.64
2023-03-06T09:38:48.367Z,72.20
2023-03-06T09:41:27.956Z,71.43
2023-03-06T09:44:04.866Z,75.44
2023-03-06T09:46:59.640Z,74.22
2023-03-06T09:49:47.456Z,73.16
2023-03-06T09:52:23.464Z,69.96
2023-03-06T09:55:02.726Z,68.42
2023-03-06T09:57:41.789Z,64.55
2023-03-06T10:00:16.848Z,61.92
2023-03-06T10:02:45.938Z,63.25
2023-03-06T10:05:19.828Z,64.61
2023-03-06T10:08:00.580Z,63.05
2023-03-06T10:10:47.037Z,60.81
2023-03-06T10:13:38.209Z,59.90
2023-03-06T10:16:30.426Z,59.51
2023-03-06T10:19:04.515Z,58.72
2023-03-06T10:21:50.396Z,61.77
2023-03-06T10:24:35.142Z,63.21
2023-03-06T10:27:31.593Z,63.69
2023-03-06T10:30:11.326Z,62.13
2023-03-06T10:32:51.199Z,60.94
2023-03-06T10:35:22.183Z,60.10
2023-03-06T10:37:51.956Z,62.20
2023-03-06T10:40:21.903Z,64.80
2023-03-06T10:42:56.018Z,65.47
2023-03-06T10:45:33.076Z,66.36
2023-03-06T10:48:14.629Z,66.96
2023-03-06T10:50:41.980Z,66.07
2023-03-06T10:53:23.411Z,65.83
2023-03-06T10:56:01.384Z,64.67
2023-03-06T10:58:32.932Z,65.96
2023-03-06T11:01:09.297Z,65.11
2023-03-06T11:03:37.479Z,65.96
2023-03-06T11:06:13.096Z,63.04
2023-03-06T11:08:43.308Z,64.55
2023-03-06T11:11:36.401Z,61.90
2023-03-06T11:14:15.270Z,60.10
2023-03-06T11:16:53.011Z,61.31
2023-03-06T11:19:28.009Z,61.07
2023-03-06T11:22:06.030Z,63.98
2023-03-06T11:24:40.606Z,60.99
2023-03-06T11:27:19.237Z,59.14
2023-03-06T11:29:50.465Z,60.44
2023-03-06T11:32:39.372Z,62.18
2023-03-06T11:35:12.718Z,60.49
2023-03-06T11:38:07.765Z,59.10
2023-03-06T11:40:49.818Z,58.65
2023-03-06T11:43:44.986Z,60.01
2023-03-06T11:46:30.736Z,60.13
2023-03-06T11:49:12.976Z,59.84
2023-03-06T11:51:46.410Z,60.74
2023-03-06T11:54:14.229Z,56.74
2023-03-06T11:56:55.417Z,58.26
2023-03-06T11:59:37.386Z,57.94
2023-03-06T12:02:21.923Z,57.15
2023-03-06T12:05:01.380Z,56.22
2023-03-06T12:07:58.012Z,56.08
2023-03-06T12:10:51.871Z,56.60
2023-03-06T12:16:11.083Z,58.61
2023-03-06T12:19:15.981Z,58.78
2023-03-06T12:21:47.261Z,58.23
2023-03-06T12:24:32.208Z,59.10
2023-03-06T12:27:08.208Z,57.95
2023-03-06T12:29:47.727Z,58.50
2023-03-06T12:32:38.397Z,55.18
2023-03-06T12:35:28.060Z,55.92
2023-03-06T12:38:04.377Z,52.95
2023-03-06T12:40:59.353Z,53.84
2023-03-06T12:43:39.926Z,56.11
2023-03-06T12:46:25.333Z,56.58
2023-03-06T12:49:08.890Z,55.81
2023-03-06T12:51:37.619Z,55.95
2023-03-06T12:54:11.326Z,55.70
2023-03-06T12:56:39.821Z,55.01
2023-03-06T12:59:47.914Z,54.31
2023-03-06T13:02:24.480Z,53.67
2023-03-06T13:05:14.614Z,55.50
2023-03-06T13:08:12.704Z,53.40
2023-03-06T13:10:42.337Z,54.08
2023-03-06T13:13:34.217Z,52.76
2023-03-06T13:16:15.944Z,52.14
2023-03-06T13:18:43.276Z,50.79
2023-03-06T13:22:00.268Z,50.23
2023-03-06T13:24:33.270Z,50.70
2023-03-06T13:27:12.079Z,49.79
2023-03-06T13:29:39.368Z,50.59
2023-03-06T13:32:15.932Z,50.85
2023-03-06T13:34:52.498Z,51.01
2023-03-06T13:37:20.166Z,49.43
2023-03-06T13:39:59.585Z,49.17
2023-03-06T13:42:37.425Z,50.33
2023-03-06T13:45:23.931Z,48.91
2023-03-06T13:48:22.616Z,48.06
2023-03-06T13:50:46.242Z,49.39
2023-03-06T13:53:25.348Z,50.71
2023-03-06T13:56:10.008Z,49.78
2023-03-06T13:58:53.434Z,50.91
2023-03-06T14:01:44.942Z,50.88
2023-03-06T14:04:38.051Z,51.31
2023-03-06T14:07:11.184Z,52.03
2023-03-06T14:09:43.580Z,52.03
2023-03-06T14:12:27.874Z,50.40
2023-03-06T14:14:58.748Z,51.02
2023-03-06T14:17:34.831Z,52.67
2023-03-06T14:20:18.224Z,53.46
2023-03-06T14:22:45.707Z,52.57
2023-03-06T14:25:13.032Z,51.41
2023-03-06T14:27:58.173Z,50.93
2023-03-06T14:30:28.068Z,52.40
2023-03-06T14:32:58.419Z,52.89
2023-03-06T14:35:32.128Z,53.99
2023-03-06T14:38:02.810Z,52.88
2023-03-06T14:40:34.700Z,52.04
2023-03-06T14:43:12.360Z,53.21
2023-03-06T14:46:14.959Z,53.96
2023-03-06T14:48:45.821Z,54.08
2023-03-06T14:51:21.012Z,55.11
2023-03-06T14:53:50.693Z,54.29
2023-03-06T14:56:21.248Z,54.61
2023-03-06T14:58:56.865Z,55.25
2023-03-06T15:01:40.894Z,54.49
2023-03-06T15:04:45.744Z,55.96
2023-03-06T15:07:17.709Z,56.00
2023-03-06T15:09:49.473Z,56.76
2023-03-06T15:12:22.785Z,56.36
2023-03-06T15:15:09.571Z,58.18
2023-03-06T15:17:41.709Z,59.72
2023-03-06T15:21:00.289Z,57.70
2023-03-06T15:23:40.177Z,55.43
2023-03-06T15:26:31.929Z,56.13
2023-03-06T15:29:11.293Z,56.19
2023-03-06T15:31:44.045Z,56.31
2023-03-06T15:34:11.478Z,56.91
2023-03-06T15:36:42.786Z,57.91
2023-03-06T15:39:28.160Z,59.67
2023-03-06T15:42:00.774Z,58.16
2023-03-06T15:44:31.693Z,57.58
2023-03-06T15:47:08.548Z,56.28
2023-03-06T15:49:38.138Z,56.76
2023-03-06T15:52:09.433Z,56.80
2023-03-06T15:54:37.127Z,56.93
2023-03-06T15:57:06.087Z,57.21
2023-03-06T15:59:41.453Z,56.60
2023-03-06T16:02:17.985Z,56.54
2023-03-06T16:04:46.110Z,56.84
2023-03-06T16:07:14.254Z,56.25
2023-03-06T16:09:42.880Z,54.77
2023-03-06T16:12:30.743Z,55.02
2023-03-06T16:15:01.202Z,54.56
2023-03-06T16:17:28.483Z,55.70
2023-03-06T16:19:55.869Z,56.06
2023-03-06T16:22:23.242Z,55.56
2023-03-06T16:24:50.925Z,55.99
2023-03-06T16:27:19.811Z,56.76
2023-03-06T16:29:47.232Z,57.50
2023-03-06T16:32:14.499Z,58.17
2023-03-06T16:34:41.942Z,58.05
2023-03-06T16:37:12.749Z,59.52
2023-03-06T16:39:40.172Z,59.43
2023-03-06T16:42:07.487Z,59.49
2023-03-06T16:44:34.830Z,59.68
2023-03-06T16:47:02.111Z,59.11
2023-03-06T16:49:29.544Z,60.15
2023-03-06T16:51:56.908Z,60.78
2023-03-06T16:54:26.161Z,61.27
2023-03-06T16:56:53.491Z,61.19
2023-03-06T16:59:21.042Z,61.57
2023-03-06T17:01:48.378Z,62.77
2023-03-06T17:04:15.769Z,62.82
2023-03-06T17:06:43.346Z,63.80
2023-03-06T17:09:11.074Z,64.30
2023-03-06T17:11:38.758Z,65.45
2023-03-06T17:14:06.978Z,65.21
2023-03-06T17:16:36.521Z,65.86
2023-03-06T17:19:03.933Z,67.31
2023-03-06T17:21:31.644Z,67.78
2023-03-06T17:24:01.649Z,68.53
2023-03-06T17:26:29.292Z,67.67
2023-03-06T17:28:56.778Z,68.24
2023-03-06T17:31:26.798Z,69.17
2023-03-06T17:33:59.114Z,69.54
2023-03-06T17:36:27.835Z,69.27
2023-03-06T17:38:56.927Z,69.76
2023-03-06T17:41:25.040Z,70.01
2023-03-06T17:43:55.270Z,70.88
2023-03-06T17:46:22.694Z,71.69
2023-03-06T17:48:50.280Z,71.40
2023-03-06T17:51:17.634Z,71.61
2023-03-06T17:53:45.001Z,72.31
2023-03-06T17:56:14.331Z,71.55
2023-03-06T17:58:41.733Z,71.55
2023-03-06T18:01:29.953Z,72.12
2023-03-06T18:03:57.669Z,71.01
2023-03-06T18:06:27.566Z,70.46
2023-03-06T18:08:54.936Z,70.49
2023-03-06T18:11:22.802Z,70.64
2023-03-06T18:13:50.610Z,71.01
2023-03-06T18:16:20.992Z,71.38
2023-03-06T18:18:51.693Z,71.08
2023-03-06T18:21:19.929Z,71.65
2023-03-06T18:23:47.421Z,71.41
2023-03-06T18:26:18.597Z,71.74
2023-03-06T18:28:48.063Z,72.38
2023-03-06T18:31:24.606Z,72.35
2023-03-06T18:33:53.360Z,71.99
2023-03-06T18:36:22.873Z,71.83
2023-03-06T18:38:50.510Z,72.06
2023-03-06T18:41:19.229Z,72.19
2023-03-06T18:43:55.127Z,71.96
2023-03-06T18:46:23.736Z,72.58
2023-03-06T18:48:51.276Z,73.65
2023-03-06T18:51:20.128Z,73.88
2023-03-06T18:53:47.766Z,73.69
2023-03-06T18:56:22.340Z,75.48
2023-03-06T18:58:50.466Z,75.50
2023-03-06T19:01:18.475Z,74.33
2023-03-06T19:03:49.179Z,73.51
2023-03-06T19:06:17.330Z,73.23
2023-03-06T19:08:45.192Z,72.72
2023-03-06T19:11:15.153Z,73.22
2023-03-06T19:13:43.033Z,73.96
2023-03-06T19:16:17.750Z,73.85
2023-03-06T19:18:45.072Z,74.24
2023-03-06T19:21:20.972Z,74.79
2023-03-06T19:23:49.101Z,74.44
2023-03-06T19:26:18.719Z,75.16
2023-03-06T19:28:47.006Z,74.88
2023-03-06T19:31:20.449Z,75.92
2023-03-06T19:33:49.229Z,76.99
2023-03-06T19:36:19.291Z,77.05
2023-03-06T19:38:52.446Z,77.27
2023-03-06T19:41:19.714Z,78.08
2023-03-06T19:43:53.846Z,77.98
2023-03-06T19:46:22.112Z,79.30
2023-03-06T19:48:55.062Z,79.25
2023-03-06T19:51:22.526Z,79.46
2023-03-06T19:53:49.906Z,79.44
2023-03-06T19:56:29.080Z,78.51
2023-03-06T19:58:56.970Z,78.45
2023-03-06T20:01:26.612Z,78.04
2023-03-06T20:03:59.461Z,77.79
2023-03-06T20:06:29.253Z,77.10
2023-03-06T20:08:57.257Z,77.15
2023-03-06T20:11:29.841Z,77.03
2023-03-06T20:13:59.684Z,78.11
2023-03-06T20:16:28.196Z,77.90
2023-03-06T20:18:58.758Z,77.60
2023-03-06T20:21:31.348Z,77.74
2023-03-06T20:23:59.335Z,77.33
2023-03-06T20:26:28.826Z,77.56
2023-03-06T20:28:57.132Z,78.09
2023-03-06T20:31:26.779Z,78.39
2023-03-06T20:33:57.047Z,79.16
2023-03-06T20:36:28.889Z,78.99
2023-03-06T20:38:59.022Z,78.86
2023-03-06T20:41:28.743Z,79.17
2023-03-06T20:43:58.227Z,80.79
2023-03-06T20:46:26.227Z,80.69
2023-03-06T20:48:54.369Z,81.07
2023-03-06T20:51:28.588Z,80.96
2023-03-06T20:53:57.538Z,82.26
2023-03-06T20:56:27.884Z,82.45
2023-03-06T20:58:55.647Z,82.95
2023-03-06T21:01:31.634Z,83.09
2023-03-06T21:04:00.144Z,83.10
2023-03-06T21:06:30.864Z,83.55
2023-03-06T21:08:59.595Z,83.77
2023-03-06T21:11:27.962Z,83.52
2023-03-06T21:13:56.001Z,81.09
2023-03-06T21:16:25.638Z,80.68
2023-03-06T21:18:58.029Z,82.11
2023-03-06T21:21:29.801Z,80.44
2023-03-06T21:23:57.682Z,80.97
2023-03-06T21:26:27.346Z,81.42
2023-03-06T21:28:57.167Z,83.15
2023-03-06T21:31:25.228Z,81.97
2023-03-06T21:33:52.600Z,81.20
2023-03-06T21:36:21.788Z,81.52
2023-03-06T21:38:50.185Z,81.69
2023-03-06T21:41:28.615Z,82.31
2023-03-06T21:43:57.309Z,82.99
2023-03-06T21:46:25.579Z,83.90
2023-03-06T21:48:53.506Z,84.36
2023-03-06T21:51:23.460Z,85.69
2023-03-06T21:53:52.717Z,85.04
2023-03-06T21:56:23.849Z,84.91
2023-03-06T21:58:51.552Z,84.24
2023-03-06T22:01:22.800Z,84.32
2023-03-06T22:03:50.717Z,84.08
2023-03-06T22:06:22.815Z,84.09
2023-03-06T22:08:50.240Z,83.84
2023-03-06T22:11:19.691Z,84.24
2023-03-06T22:13:50.598Z,84.69
2023-03-06T22:16:18.359Z,84.93
2023-03-06T22:18:47.389Z,85.17
2023-03-06T22:21:16.592Z,86.13
2023-03-06T22:23:44.323Z,85.24
2023-03-06T22:26:14.263Z,85.42
2023-03-06T22:28:42.090Z,85.64
2023-03-06T22:31:13.672Z,87.19
2023-03-06T22:33:44.302Z,87.73
2023-03-06T22:36:14.412Z,88.45
2023-03-06T22:38:43.764Z,88.27
2023-03-06T22:41:12.674Z,88.95
2023-03-06T22:43:40.282Z,89.02
2023-03-06T22:46:10.731Z,90.28
2023-03-06T22:48:38.119Z,90.58
2023-03-06T22:51:17.171Z,90.95
2023-03-06T22:53:45.081Z,90.65
2023-03-06T22:56:15.332Z,90.35
2023-03-06T22:58:44.812Z,90.46
2023-03-06T23:01:18.442Z,90.82
2023-03-06T23:03:54.236Z,91.70
2023-03-06T23:06:25.030Z,91.13
2023-03-06T23:09:00.900Z,91.01
2023-03-06T23:11:29.201Z,91.26
2023-03-06T23:14:17.157Z,91.31
2023-03-06T23:17:03.530Z,91.18
2023-03-06T23:19:53.125Z,90.81
2023-03-06T23:22:39.103Z,91.02
2023-03-06T23:25:24.888Z,91.35
2023-03-06T23:27:52.283Z,91.66
2023-03-06T23:30:19.726Z,91.54
2023-03-06T23:32:47.007Z,90.37
2023-03-06T23:35:14.561Z,89.51
2023-03-06T23:37:42.134Z,89.90
2023-03-06T23:40:10.246Z,89.35
2023-03-06T23:42:38.269Z,89.29
2023-03-06T23:45:07.302Z,88.99
2023-03-06T23:47:34.957Z,88.27
2023-03-06T23:50:02.429Z,87.31
2023-03-06T23:52:29.755Z,88.85
2023-03-06T23:54:57.149Z,91.46
2023-03-06T23:57:26.888Z,91.79
2023-03-06T23:59:54.221Z,91.07
